Terminal Aerodrome Forecast
Issued by NWS

Home | Current Version | Previous Version | Text Only | Print | Product List | Glossary On
Versions: 1 2 3 4 5 6 7 8 9 10 11 12 13 14 15 16
000
FTUS41 KPBZ 272300
TAFDUJ
TAF
KDUJ 272320Z 2800/2824 22008KT P6SM OVC045
      TEMPO 2803/2806 5SM -SHRA OVC015
     FM280600 26007KT 3SM -RA BR OVC007
     FM281600 30006KT P6SM OVC015=

USA.gov is the U.S. government's official web portal to all federal, state and local government web resources and services.